Portada
METAR-TAF:

METAR-TAF

Aeroports :

Aeroport Suvarnabhumi

Bangkok-Suvarnabhumi, Tailàndia

latitud: 13-40-52N, longitud: 100-44-50E, altitud: 2 m

Observació

L'informe es va fer fa 39 minuts, a les 23:00 UTC
Vent 6 kt del Est, variant entre Nord/Nord-Est i Sud-Est
Temperatura 27°C
Humitat 84%
Pressió 1014 hPa
Visibilitat: 6000 m
Escasses núvols a una alçada de 2500 ft

METAR: VTBS 202300Z 08006KT 020V130 6000 FEW025 27/24 Q1014 NOSIG

Hora: 06:39 (23:39 UTC)

Pronòstic

L'informe es va fer fa 6 hores i 39 minuts, a les 17:00 UTC
Pronòstic vàlid del 20 a les 18 UTC al 21 a les 24 UTC
Vent 5 kt del Sud/Sud-Oest
Visibilitat: 7000 m
Escasses núvols a una alçada de 2500 ft
Evolucionant progressivament
l' 20 a les 22 UTC al 20 a les 24 UTC
Vent 5 kt del Est
Visibilitat: 3000 m
boirina
Evolucionant progressivament
l' 21 a les 02 UTC al 21 a les 04 UTC
Visibilitat: 8000 m

TAF: VTBS 201700Z 2018/2124 21005KT 7000 FEW025 BECMG 2022/2024 09005KT 3000 BR BECMG 2102/2104 8000 NSW

Observacions i pronòstics meteorològics de més de 4000 aeroports (METAR i TAF).

Les estacions disponibles són els punts grocs i vermells al mapa.

Posi el ratolí al punt desitjat per veure el nom de l'estació.

Feu clic per veure les observacions i els pronòstics meteorològics.

Per canviar el mapa: feu clic els botons verds amb una creu de color negre per apropar; al botó verd amb un guió per allunyar la imatge; o en les fletxes verdes per a mapes adjacents.


METAR-TAF: